Waynesville-St. Robert Regional Forney field Fort Leonard Wood US
ICAO: KTBN
IATA: TBN
Category: Medium
Scheduled Services: Yes

Elevation: 1159 ft
TransAlt. 18000 ft.

Airport Communications:
ATIS:118.7
KANSAS CITY CNTR:133.8
CTAF:125.4
FORNEY TWR:125.4

KTBN Zoom In..

Runways:

(A) RW 14 length 6038 ft width 150 ft
ILS 110.90 / hdg 144

(B) RW 32 length 6038 ft width 150 ft
---- / hdg 324

Location; KTBN
Day. 14 / Time. 13.59 Zulu
* Altimeter: 30.00
* Temperature: 22° c. 71.6°f.
* Wind from: KTB° Speed N kn.
Dewpoint: 20° c.
Visibility: 10 Statute Miles.
Clouds: Scattered 4600 ft.
Conditions: Slight Drizzle.

KTBN 141359Z AUTO 18005KT 10SM -DZ SCT046 22/20 A3000 RMK AO2 DZE58DZB59 SLP152


Wind From KTB°
Speed N kn.

 
 
jpsmedia.com for Web Design worldairports.se 2018   terms of use